Tasman Mariner — VRWW8 — position and weather

sailwx.info

Track history (hours):
 
Tides and Currents Weather Stations Pressure Air Temp Water Temp Dewpoint Dewpoint Depression Visibility Wind Speed Wind Dir Waves Ship Positions

Tasman Mariner

Last reported at 2016-Dec-01 09:14 UTC. Time now 2016-Dec-09 21:15 UTC.
Position N 01°15' E 104°04'.
Warning: this ship's position is 8 days out of date.

Length 184 m; beam 27 m; draft 10 m.

Type: Ship (hazmat cat C). MMSI: 477860000.

Date/timePositionNaut miles runAvg speedWind from/ knotsBaromVisibWave heightAir tempDewpointWater temp
2016-Dec-01 09:14N 01°15' E 104°04'1216.7
2016-Dec-01 08:30N 01°11' E 103°52'7214.3
2016-Dec-01 03:27N 01°38' E 102°45'1816.3
2016-Dec-01 02:22N 01°46' E 102°30'1416.6
2016-Dec-01 01:32N 01°53' E 102°17'  
2016-Nov-27 09:33N 01°54' E 102°22'7 7.2
2016-Nov-27 08:33N 01°51' E 102°28'1111.1
2016-Nov-27 07:32N 01°47' E 102°39'81 9.8
2016-Nov-26 23:18N 01°13' E 103°52'3 3.5
2016-Nov-26 22:22N 01°16' E 103°51'0 0.0
2016-Nov-26 21:32N 01°16' E 103°51'0 0.0
2016-Nov-26 20:32N 01°16' E 103°51'0 0.0
2016-Nov-26 19:29N 01°16' E 103°51'0 0.0
2016-Nov-26 18:29N 01°16' E 103°51'0 0.0
2016-Nov-26 17:32N 01°16' E 103°51'0 0.0
2016-Nov-26 16:32N 01°16' E 103°51'0 0.0
2016-Nov-26 15:32N 01°16' E 103°51'0 0.0
2016-Nov-26 14:32N 01°16' E 103°51'0 0.0
2016-Nov-26 13:29N 01°16' E 103°51'0 0.0
2016-Nov-26 12:32N 01°16' E 103°51'1 1.5
2016-Nov-26 11:33N 01°15' E 103°52'1 1.3
2016-Nov-26 10:33N 01°15' E 103°53'0 0.0
2016-Nov-26 09:29N 01°15' E 103°53'0 0.1
2016-Nov-26 08:32N 01°15' E 103°53'0 0.1
2016-Nov-26 07:26N 01°15' E 103°53'0 0.0
2016-Nov-26 06:23N 01°15' E 103°53'0 0.0
2016-Nov-26 05:05N 01°15' E 103°53'0 0.0
2016-Nov-26 04:32N 01°15' E 103°53'4 4.2
2016-Nov-26 03:33N 01°12' E 103°51'9 9.1
2016-Nov-26 02:31N 01°18' E 103°43'0 0.1
2016-Nov-26 01:29N 01°18' E 103°43'0 0.0
2016-Nov-26 00:29N 01°18' E 103°43'0 0.0
2016-Nov-25 22:29N 01°18' E 103°43'0 0.0
2016-Nov-25 19:17N 01°18' E 103°43'0 0.0
2016-Nov-25 18:32N 01°18' E 103°43'0 0.0
2016-Nov-25 17:29N 01°18' E 103°43'0 0.0
2016-Nov-25 06:11N 01°18' E 103°43'0 0.0
2016-Nov-25 05:29N 01°18' E 103°43'0 0.0
2016-Nov-25 04:11N 01°18' E 103°43'0 0.0
2016-Nov-25 03:29N 01°18' E 103°43'0 0.0
2016-Nov-25 02:29N 01°18' E 103°43'0 0.2
2016-Nov-25 01:33N 01°18' E 103°43'6 6.2
2016-Nov-25 00:33N 01°13' E 103°48'8 8.3
2016-Nov-24 23:33N 01°14' E 103°56'  
Track history (hours):
 
Tides and Currents Weather Stations Pressure Air Temp Water Temp Dewpoint Dewpoint Depression Visibility Wind Speed Wind Dir Waves Ship Positions

Tasman Mariner

Last reported at 2016-Dec-01 09:14 UTC. Time now 2016-Dec-09 21:15 UTC.
Position N 01°15' E 104°04'.
Warning: this ship's position is 8 days out of date.

Length 184 m; beam 27 m; draft 10 m.

Type: Ship (hazmat cat C). MMSI: 477860000.

Date/timePositionNaut miles runAvg speedWind from/ knotsBaromVisibWave heightAir tempDewpointWater temp
2016-Dec-01 09:14N 01°15' E 104°04'1216.7
2016-Dec-01 08:30N 01°11' E 103°52'7214.3
2016-Dec-01 03:27N 01°38' E 102°45'1816.3
2016-Dec-01 02:22N 01°46' E 102°30'1416.6
2016-Dec-01 01:32N 01°53' E 102°17'  
2016-Nov-27 09:33N 01°54' E 102°22'7 7.2
2016-Nov-27 08:33N 01°51' E 102°28'1111.1
2016-Nov-27 07:32N 01°47' E 102°39'81 9.8
2016-Nov-26 23:18N 01°13' E 103°52'3 3.5
2016-Nov-26 22:22N 01°16' E 103°51'0 0.0
2016-Nov-26 21:32N 01°16' E 103°51'0 0.0
2016-Nov-26 20:32N 01°16' E 103°51'0 0.0
2016-Nov-26 19:29N 01°16' E 103°51'0 0.0
2016-Nov-26 18:29N 01°16' E 103°51'0 0.0
2016-Nov-26 17:32N 01°16' E 103°51'0 0.0
2016-Nov-26 16:32N 01°16' E 103°51'0 0.0
2016-Nov-26 15:32N 01°16' E 103°51'0 0.0
2016-Nov-26 14:32N 01°16' E 103°51'0 0.0
2016-Nov-26 13:29N 01°16' E 103°51'0 0.0
2016-Nov-26 12:32N 01°16' E 103°51'1 1.5
2016-Nov-26 11:33N 01°15' E 103°52'1 1.3
2016-Nov-26 10:33N 01°15' E 103°53'0 0.0
2016-Nov-26 09:29N 01°15' E 103°53'0 0.1
2016-Nov-26 08:32N 01°15' E 103°53'0 0.1
2016-Nov-26 07:26N 01°15' E 103°53'0 0.0
2016-Nov-26 06:23N 01°15' E 103°53'0 0.0
2016-Nov-26 05:05N 01°15' E 103°53'0 0.0
2016-Nov-26 04:32N 01°15' E 103°53'4 4.2
2016-Nov-26 03:33N 01°12' E 103°51'9 9.1
2016-Nov-26 02:31N 01°18' E 103°43'0 0.1
2016-Nov-26 01:29N 01°18' E 103°43'0 0.0
2016-Nov-26 00:29N 01°18' E 103°43'0 0.0
2016-Nov-25 22:29N 01°18' E 103°43'0 0.0
2016-Nov-25 19:17N 01°18' E 103°43'0 0.0
2016-Nov-25 18:32N 01°18' E 103°43'0 0.0
2016-Nov-25 17:29N 01°18' E 103°43'0 0.0
2016-Nov-25 06:11N 01°18' E 103°43'0 0.0
2016-Nov-25 05:29N 01°18' E 103°43'0 0.0
2016-Nov-25 04:11N 01°18' E 103°43'0 0.0
2016-Nov-25 03:29N 01°18' E 103°43'0 0.0
2016-Nov-25 02:29N 01°18' E 103°43'0 0.2
2016-Nov-25 01:33N 01°18' E 103°43'6 6.2
2016-Nov-25 00:33N 01°13' E 103°48'8 8.3
2016-Nov-24 23:33N 01°14' E 103°56'  

Dump ship's entire track history